createdAt,value
2022-09-15T00:01:40.049Z,95454.53
2022-09-15T00:04:11.441Z,95453.50
2022-09-15T00:06:39.932Z,95453.25
2022-09-15T00:09:10.235Z,95444.38
2022-09-15T00:11:39.886Z,95442.53
2022-09-15T00:14:09.280Z,95427.72
2022-09-15T00:16:37.827Z,95431.81
2022-09-15T00:19:06.737Z,95416.88
2022-09-15T00:21:38.366Z,95422.13
2022-09-15T00:24:07.571Z,95420.41
2022-09-15T00:26:37.820Z,95434.03
2022-09-15T00:29:06.927Z,95420.66
2022-09-15T00:31:35.342Z,95428.22
2022-09-15T00:34:04.972Z,95420.97
2022-09-15T00:36:33.629Z,95417.34
2022-09-15T00:39:02.081Z,95408.84
2022-09-15T00:41:30.873Z,95405.41
2022-09-15T00:44:03.243Z,95401.97
2022-09-15T00:46:33.334Z,95395.09
2022-09-15T00:49:06.192Z,95391.91
2022-09-15T00:51:39.763Z,95397.50
2022-09-15T00:54:13.648Z,95399.31
2022-09-15T00:56:44.022Z,95390.22
2022-09-15T00:59:18.207Z,95384.38
2022-09-15T01:01:50.609Z,95383.31
2022-09-15T01:04:18.970Z,95387.06
2022-09-15T01:06:51.653Z,95380.63
2022-09-15T01:09:24.914Z,95383.88
2022-09-15T01:11:53.434Z,95385.50
2022-09-15T01:14:23.059Z,95390.88
2022-09-15T01:17:06.915Z,95383.06
2022-09-15T01:20:08.123Z,95379.88
2022-09-15T01:22:45.128Z,95385.75
2022-09-15T01:25:28.056Z,95391.59
2022-09-15T01:28:37.350Z,95383.50
2022-09-15T01:31:14.051Z,95385.28
2022-09-15T01:33:49.183Z,95375.28
2022-09-15T01:36:23.944Z,95386.50
2022-09-15T01:39:01.153Z,95386.25
2022-09-15T01:41:32.115Z,95386.00
2022-09-15T01:44:06.372Z,95386.31
2022-09-15T01:46:38.534Z,95383.41
2022-09-15T01:49:10.539Z,95372.91
2022-09-15T01:51:41.058Z,95381.28
2022-09-15T01:54:11.698Z,95376.25
2022-09-15T01:56:40.905Z,95372.25
2022-09-15T01:59:10.187Z,95378.19
2022-09-15T02:01:44.754Z,95376.06
2022-09-15T02:04:18.352Z,95377.72
2022-09-15T02:06:54.490Z,95377.72
2022-09-15T02:09:26.322Z,95378.75
2022-09-15T02:12:03.291Z,95378.94
2022-09-15T02:14:48.165Z,95376.16
2022-09-15T02:17:21.570Z,95374.47
2022-09-15T02:19:53.310Z,95386.72
2022-09-15T02:22:27.857Z,95376.06
2022-09-15T02:25:02.902Z,95385.41
2022-09-15T02:27:36.316Z,95380.28
2022-09-15T02:30:11.766Z,95386.69
2022-09-15T02:32:46.691Z,95382.13
2022-09-15T02:35:16.685Z,95381.34
2022-09-15T02:37:46.189Z,95373.81
2022-09-15T02:40:14.758Z,95382.88
2022-09-15T02:42:54.310Z,95378.09
2022-09-15T02:45:23.122Z,95379.16
2022-09-15T02:47:52.850Z,95377.53
2022-09-15T02:50:21.737Z,95377.53
2022-09-15T02:52:50.030Z,95374.38
2022-09-15T02:55:18.625Z,95374.94
2022-09-15T02:57:47.169Z,95376.53
2022-09-15T03:00:19.941Z,95376.78
2022-09-15T03:02:51.297Z,95377.28
2022-09-15T03:05:23.938Z,95371.03
2022-09-15T03:07:53.312Z,95371.66
2022-09-15T03:10:23.060Z,95371.44
2022-09-15T03:12:53.210Z,95372.06
2022-09-15T03:15:24.557Z,95381.75
2022-09-15T03:17:54.092Z,95381.50
2022-09-15T03:20:27.364Z,95378.25
2022-09-15T03:22:55.951Z,95382.31
2022-09-15T03:25:26.885Z,95381.00
2022-09-15T03:27:55.316Z,95381.28
2022-09-15T03:30:24.155Z,95373.47
2022-09-15T03:32:52.528Z,95368.91
2022-09-15T03:35:20.940Z,95364.94
2022-09-15T03:37:51.199Z,95361.44
2022-09-15T03:40:19.546Z,95363.78
2022-09-15T03:42:48.792Z,95367.78
2022-09-15T03:45:17.252Z,95354.06
2022-09-15T03:47:45.608Z,95350.41
2022-09-15T03:50:14.016Z,95359.00
2022-09-15T03:52:42.996Z,95349.94
2022-09-15T03:55:13.095Z,95343.25
2022-09-15T03:57:41.475Z,95349.19
2022-09-15T04:00:11.319Z,95342.47
2022-09-15T04:02:39.657Z,95352.94
2022-09-15T04:05:13.331Z,95351.31
2022-09-15T04:07:42.210Z,95347.00
2022-09-15T04:10:12.599Z,95345.38
2022-09-15T04:12:42.084Z,95347.47
2022-09-15T04:15:11.405Z,95347.97
2022-09-15T04:17:41.765Z,95359.41
2022-09-15T04:20:11.196Z,95348.38
2022-09-15T04:22:39.648Z,95345.63
2022-09-15T04:25:09.954Z,95349.09
2022-09-15T04:27:40.526Z,95357.94
2022-09-15T04:30:10.229Z,95356.81
2022-09-15T04:32:38.570Z,95363.47
2022-09-15T04:35:07.837Z,95357.22
2022-09-15T04:37:36.237Z,95360.47
2022-09-15T04:40:04.997Z,95366.94
2022-09-15T04:42:33.852Z,95362.16
2022-09-15T04:45:03.699Z,95355.50
2022-09-15T04:47:32.089Z,95353.16
2022-09-15T04:50:00.409Z,95343.81
2022-09-15T04:52:28.720Z,95355.38
2022-09-15T04:54:57.387Z,95360.50
2022-09-15T04:57:25.731Z,95362.56
2022-09-15T04:59:54.139Z,95361.13
2022-09-15T05:02:23.957Z,95357.63
2022-09-15T05:04:52.451Z,95365.97
2022-09-15T05:07:20.963Z,95368.44
2022-09-15T05:09:49.307Z,95377.25
2022-09-15T05:12:17.649Z,95371.66
2022-09-15T05:14:45.973Z,95378.22
2022-09-15T05:17:14.345Z,95386.16
2022-09-15T05:19:44.023Z,95384.00
2022-09-15T05:22:12.452Z,95401.94
2022-09-15T05:24:40.755Z,95398.81
2022-09-15T05:27:09.292Z,95395.00
2022-09-15T05:29:37.596Z,95390.31
2022-09-15T05:32:06.232Z,95400.41
2022-09-15T05:34:34.615Z,95392.75
2022-09-15T05:37:05.300Z,95391.78
2022-09-15T05:39:33.640Z,95397.72
2022-09-15T05:42:01.947Z,95401.22
2022-09-15T05:44:31.580Z,95394.72
2022-09-15T05:47:00.005Z,95391.97
2022-09-15T05:49:29.489Z,95408.84
2022-09-15T05:51:57.816Z,95408.59
2022-09-15T05:54:28.418Z,95399.59
2022-09-15T05:56:56.746Z,95400.97
2022-09-15T05:59:25.067Z,95401.81
2022-09-15T06:01:53.715Z,95407.41
2022-09-15T06:04:22.054Z,95413.44
2022-09-15T06:06:50.325Z,95412.09
2022-09-15T06:09:19.028Z,95401.03
2022-09-15T06:11:48.763Z,95393.56
2022-09-15T06:14:17.200Z,95396.00
2022-09-15T06:16:45.810Z,95393.34
2022-09-15T06:19:14.848Z,95385.88
2022-09-15T06:21:43.231Z,95384.09
2022-09-15T06:24:13.393Z,95384.41
2022-09-15T06:26:41.770Z,95391.47
2022-09-15T06:29:13.864Z,95385.41
2022-09-15T06:31:42.440Z,95388.41
2022-09-15T06:34:11.330Z,95398.63
2022-09-15T06:36:40.344Z,95394.09
2022-09-15T06:39:10.035Z,95396.53
2022-09-15T06:42:00.759Z,95400.56
2022-09-15T06:44:28.234Z,95421.09
2022-09-15T06:46:56.576Z,95420.84
2022-09-15T06:49:26.004Z,95425.16
2022-09-15T06:51:54.540Z,95426.75
2022-09-15T06:54:22.851Z,95424.59
2022-09-15T06:56:51.280Z,95431.66
2022-09-15T06:59:19.579Z,95424.75
2022-09-15T07:01:53.561Z,95419.78
2022-09-15T07:04:22.955Z,95428.72
2022-09-15T07:06:51.576Z,95418.06
2022-09-15T07:09:20.153Z,95413.13
2022-09-15T07:11:48.631Z,95422.84
2022-09-15T07:14:16.978Z,95414.06
2022-09-15T07:16:45.429Z,95418.19
2022-09-15T07:19:15.479Z,95419.38
2022-09-15T07:21:43.846Z,95439.84
2022-09-15T07:24:13.079Z,95430.00
2022-09-15T07:26:42.340Z,95425.53
2022-09-15T07:29:13.016Z,95430.66
2022-09-15T07:31:41.578Z,95436.50
2022-09-15T07:34:10.263Z,95435.94
2022-09-15T07:36:40.147Z,95431.09
2022-09-15T07:39:08.479Z,95431.31
2022-09-15T07:41:36.935Z,95435.84
2022-09-15T07:44:08.042Z,95431.56
2022-09-15T07:46:36.435Z,95435.28
2022-09-15T07:49:08.224Z,95440.66
2022-09-15T07:51:36.746Z,95442.84
2022-09-15T07:54:07.088Z,95433.50
2022-09-15T07:56:35.513Z,95431.94
2022-09-15T07:59:04.111Z,95433.34
2022-09-15T08:01:32.542Z,95432.03
2022-09-15T08:04:00.938Z,95437.72
2022-09-15T08:06:29.480Z,95428.91
2022-09-15T08:09:00.748Z,95433.28
2022-09-15T08:11:31.015Z,95415.94
2022-09-15T08:14:03.016Z,95427.28
2022-09-15T08:16:31.953Z,95425.25
2022-09-15T08:19:00.801Z,95438.72
2022-09-15T08:21:29.432Z,95440.41
2022-09-15T08:23:59.525Z,95436.16
2022-09-15T08:26:31.559Z,95432.69
2022-09-15T08:29:00.795Z,95443.25
2022-09-15T08:31:29.346Z,95437.38
2022-09-15T08:33:57.782Z,95440.91
2022-09-15T08:36:28.528Z,95435.59
2022-09-15T08:38:57.258Z,95445.09
2022-09-15T08:41:30.546Z,95434.72
2022-09-15T08:44:05.673Z,95432.38
2022-09-15T08:46:41.613Z,95441.84
2022-09-15T08:49:23.583Z,95436.81
2022-09-15T08:52:04.837Z,95437.41
2022-09-15T08:54:34.888Z,95430.44
2022-09-15T08:57:06.112Z,95429.94
2022-09-15T08:59:36.976Z,95430.50
2022-09-15T09:02:41.602Z,95429.47
2022-09-15T09:05:21.793Z,95425.44
2022-09-15T09:08:04.095Z,95425.44
2022-09-15T09:10:43.097Z,95421.41
2022-09-15T09:13:24.505Z,95419.03
2022-09-15T09:16:11.645Z,95418.81
2022-09-15T09:19:04.414Z,95416.69
2022-09-15T09:21:36.442Z,95410.00
2022-09-15T09:24:07.531Z,95409.78
2022-09-15T09:26:38.272Z,95409.28
2022-09-15T09:29:13.824Z,95407.16
2022-09-15T09:31:46.778Z,95406.63
2022-09-15T09:34:24.037Z,95404.47
2022-09-15T09:36:55.984Z,95404.22
2022-09-15T09:39:24.342Z,95395.91
2022-09-15T09:41:53.144Z,95399.38
2022-09-15T09:44:31.729Z,95386.47
2022-09-15T09:47:02.892Z,95389.97
2022-09-15T09:49:35.408Z,95389.72
2022-09-15T09:52:04.983Z,95388.13
2022-09-15T09:54:35.546Z,95385.69
2022-09-15T09:57:28.043Z,95394.84
2022-09-15T09:59:56.710Z,95400.22
2022-09-15T10:02:28.020Z,95388.13
2022-09-15T10:05:17.384Z,95382.44
2022-09-15T10:07:45.839Z,95377.88
2022-09-15T10:10:21.780Z,95371.69
2022-09-15T10:12:51.414Z,95382.44
2022-09-15T10:15:25.264Z,95377.06
2022-09-15T10:17:56.903Z,95380.28
2022-09-15T10:20:32.490Z,95383.56
2022-09-15T10:23:05.731Z,95378.19
2022-09-15T10:28:28.635Z,95376.28
2022-09-15T10:31:02.562Z,95381.72
2022-09-15T10:33:35.145Z,95381.44
2022-09-15T10:36:07.301Z,95379.28
2022-09-15T10:38:42.426Z,95380.91
2022-09-15T10:41:29.319Z,95375.00
2022-09-15T10:44:15.032Z,95380.94
2022-09-15T10:46:51.734Z,95387.41
2022-09-15T10:49:34.737Z,95388.47
2022-09-15T10:52:14.089Z,95390.09
2022-09-15T10:54:59.015Z,95379.84
2022-09-15T10:57:44.486Z,95398.16
2022-09-15T11:00:17.932Z,95378.47
2022-09-15T11:03:23.892Z,95378.47
2022-09-15T11:06:06.331Z,95374.72
2022-09-15T11:08:54.206Z,95374.47
2022-09-15T11:11:35.751Z,95373.91
2022-09-15T11:14:19.331Z,95376.06
2022-09-15T11:17:00.842Z,95369.84
2022-09-15T11:19:45.491Z,95363.13
2022-09-15T11:22:19.595Z,95350.44
2022-09-15T11:24:50.983Z,95355.81
2022-09-15T11:27:24.667Z,95355.59
2022-09-15T11:30:02.928Z,95367.19
2022-09-15T11:32:38.243Z,95364.50
2022-09-15T11:35:33.863Z,95378.81
2022-09-15T11:38:14.937Z,95358.63
2022-09-15T11:40:48.939Z,95365.91
2022-09-15T11:43:25.395Z,95368.69
2022-09-15T11:45:57.824Z,95361.69
2022-09-15T11:48:32.089Z,95365.47
2022-09-15T11:51:03.389Z,95349.53
2022-09-15T11:53:39.377Z,95361.69
2022-09-15T11:56:19.546Z,95349.03
2022-09-15T11:59:03.720Z,95342.81
2022-09-15T12:01:36.502Z,95339.03
2022-09-15T12:04:09.656Z,95344.16
2022-09-15T12:06:45.814Z,95340.91
2022-09-15T12:09:18.660Z,95332.56
2022-09-15T12:11:49.743Z,95339.03
2022-09-15T12:14:29.744Z,95347.69
2022-09-15T12:16:59.546Z,95339.56
2022-09-15T12:19:45.428Z,95336.88
2022-09-15T12:22:20.243Z,95350.34
2022-09-15T12:25:00.956Z,95350.34
2022-09-15T12:27:30.103Z,95354.16
2022-09-15T12:30:00.955Z,95345.50
2022-09-15T12:32:30.218Z,95340.66
2022-09-15T12:35:04.273Z,95340.09
2022-09-15T12:37:40.824Z,95352.50
2022-09-15T12:40:27.817Z,95337.41
2022-09-15T12:42:56.727Z,95346.31
2022-09-15T12:45:29.117Z,95333.09
2022-09-15T12:48:03.100Z,95344.94
2022-09-15T12:50:34.071Z,95342.56
2022-09-15T12:53:04.691Z,95335.78
2022-09-15T12:55:37.492Z,95333.13
2022-09-15T12:58:09.691Z,95326.09
2022-09-15T13:00:49.962Z,95326.91
2022-09-15T13:03:53.782Z,95326.09
2022-09-15T13:06:25.237Z,95340.13
2022-09-15T13:08:55.707Z,95342.28
2022-09-15T13:11:39.065Z,95341.75
2022-09-15T13:14:27.865Z,95334.19
2022-09-15T13:17:01.034Z,95341.75
2022-09-15T13:19:41.193Z,95353.59
2022-09-15T13:22:23.385Z,95334.16
2022-09-15T13:24:59.266Z,95341.72
2022-09-15T13:27:35.592Z,95333.09
2022-09-15T13:30:13.100Z,95326.50
2022-09-15T13:32:47.969Z,95327.00
2022-09-15T13:35:34.913Z,95325.34
2022-09-15T13:38:43.080Z,95320.41
2022-09-15T13:41:43.017Z,95323.34
2022-09-15T13:44:27.553Z,95310.63
2022-09-15T13:47:18.157Z,95324.06
2022-09-15T13:49:52.503Z,95318.66
2022-09-15T13:52:58.310Z,95325.22
2022-09-15T13:55:31.246Z,95322.31
2022-09-15T14:00:59.866Z,95321.56
2022-09-15T14:03:37.003Z,95321.06
2022-09-15T14:06:13.544Z,95315.38
2022-09-15T14:08:44.944Z,95328.56
2022-09-15T14:11:16.996Z,95323.19
2022-09-15T14:13:48.785Z,95333.22
2022-09-15T14:16:29.222Z,95332.75
2022-09-15T14:19:00.132Z,95326.81
2022-09-15T14:21:30.780Z,95330.63
2022-09-15T14:24:01.551Z,95331.72
2022-09-15T14:26:34.143Z,95328.78
2022-09-15T14:29:05.815Z,95326.09
2022-09-15T14:31:36.903Z,95328.22
2022-09-15T14:34:09.817Z,95323.66
2022-09-15T14:36:38.328Z,95324.72
2022-09-15T14:39:17.838Z,95326.31
2022-09-15T14:41:48.532Z,95325.25
2022-09-15T14:47:21.710Z,95329.56
2022-09-15T14:49:50.734Z,95334.13
2022-09-15T14:52:28.065Z,95329.22
2022-09-15T14:55:01.485Z,95344.88
2022-09-15T14:57:38.345Z,95340.59
2022-09-15T15:00:11.206Z,95339.75
2022-09-15T15:02:54.815Z,95338.63
2022-09-15T15:05:27.227Z,95327.81
2022-09-15T15:07:56.705Z,95353.41
2022-09-15T15:10:32.204Z,95342.34
2022-09-15T15:13:11.224Z,95339.94
2022-09-15T15:15:41.039Z,95340.47
2022-09-15T15:18:38.946Z,95335.88
2022-09-15T15:21:08.014Z,95331.78
2022-09-15T15:23:46.916Z,95332.38
2022-09-15T15:26:27.322Z,95337.50
2022-09-15T15:28:57.002Z,95331.03
2022-09-15T15:31:27.361Z,95332.97
2022-09-15T15:33:59.302Z,95342.44
2022-09-15T15:36:30.000Z,95336.78
2022-09-15T15:39:01.737Z,95339.53
2022-09-15T15:41:31.751Z,95348.72
2022-09-15T15:44:07.863Z,95357.41
2022-09-15T15:46:50.918Z,95357.94
2022-09-15T15:49:21.148Z,95362.25
2022-09-15T15:51:50.177Z,95381.09
2022-09-15T15:54:18.727Z,95391.03
2022-09-15T15:56:47.531Z,95392.84
2022-09-15T15:59:18.020Z,95402.00
2022-09-15T16:01:50.666Z,95403.63
2022-09-15T16:04:19.225Z,95412.72
2022-09-15T16:06:48.160Z,95420.66
2022-09-15T16:09:17.383Z,95430.44
2022-09-15T16:11:45.884Z,95442.88
2022-09-15T16:14:14.606Z,95462.53
2022-09-15T16:16:44.576Z,95459.28
2022-09-15T16:19:13.671Z,95477.19
2022-09-15T16:21:43.468Z,95470.78
2022-09-15T16:24:14.924Z,95474.41
2022-09-15T16:26:43.878Z,95474.19
2022-09-15T16:29:12.807Z,95473.38
2022-09-15T16:31:42.986Z,95467.06
2022-09-15T16:34:17.597Z,95477.09
2022-09-15T16:36:45.944Z,95482.75
2022-09-15T16:39:14.299Z,95478.13
2022-09-15T16:41:42.819Z,95501.66
2022-09-15T16:44:19.837Z,95497.69
2022-09-15T16:46:48.409Z,95498.19
2022-09-15T16:49:18.189Z,95489.66
2022-09-15T16:51:46.616Z,95499.31
2022-09-15T16:54:16.585Z,95491.69
2022-09-15T16:56:46.140Z,95496.34
2022-09-15T16:59:15.276Z,95492.09
2022-09-15T17:01:43.651Z,95505.53
2022-09-15T17:04:16.455Z,95505.91
2022-09-15T17:06:46.237Z,95512.63
2022-09-15T17:09:14.966Z,95502.47
2022-09-15T17:11:43.311Z,95504.88
2022-09-15T17:14:16.001Z,95488.44
2022-09-15T17:16:47.266Z,95500.06
2022-09-15T17:19:15.773Z,95502.34
2022-09-15T17:21:44.110Z,95493.81
2022-09-15T17:24:14.231Z,95503.81
2022-09-15T17:26:42.616Z,95515.00
2022-09-15T17:29:11.113Z,95518.94
2022-09-15T17:31:39.429Z,95516.44
2022-09-15T17:34:15.203Z,95513.50
2022-09-15T17:36:43.520Z,95518.56
2022-09-15T17:39:13.715Z,95517.34
2022-09-15T17:41:44.568Z,95525.97
2022-09-15T17:44:12.971Z,95532.22
2022-09-15T17:46:41.423Z,95535.00
2022-09-15T17:49:09.880Z,95545.16
2022-09-15T17:51:38.337Z,95554.53
2022-09-15T17:54:07.466Z,95572.66
2022-09-15T17:56:37.244Z,95565.16
2022-09-15T17:59:05.567Z,95592.50
2022-09-15T18:01:34.023Z,95600.69
2022-09-15T18:04:02.858Z,95595.44
2022-09-15T18:06:31.261Z,95609.16
2022-09-15T18:08:59.808Z,95611.78
2022-09-15T18:11:28.875Z,95615.53
2022-09-15T18:13:59.622Z,95621.69
2022-09-15T18:16:27.951Z,95621.47
2022-09-15T18:18:56.308Z,95640.53
2022-09-15T18:21:28.956Z,95632.03
2022-09-15T18:23:57.611Z,95643.56
2022-09-15T18:26:26.852Z,95647.97
2022-09-15T18:28:56.885Z,95656.56
2022-09-15T18:31:27.434Z,95661.81
2022-09-15T18:33:55.774Z,95673.56
2022-09-15T18:36:24.115Z,95670.31
2022-09-15T18:38:52.603Z,95681.00
2022-09-15T18:41:20.994Z,95681.44
2022-09-15T18:43:49.908Z,95676.47
2022-09-15T18:46:18.588Z,95690.19
2022-09-15T18:48:48.658Z,95687.97
2022-09-15T18:51:24.118Z,95702.41
2022-09-15T18:53:58.460Z,95704.94
2022-09-15T18:56:26.809Z,95717.88
2022-09-15T18:58:55.627Z,95722.75
2022-09-15T19:01:24.782Z,95725.06
2022-09-15T19:03:55.068Z,95725.97
2022-09-15T19:06:23.816Z,95726.44
2022-09-15T19:08:52.579Z,95730.72
2022-09-15T19:11:21.451Z,95745.75
2022-09-15T19:13:49.939Z,95743.28
2022-09-15T19:16:22.683Z,95754.78
2022-09-15T19:18:51.943Z,95758.59
2022-09-15T19:21:27.125Z,95754.84
2022-09-15T19:23:58.856Z,95746.66
2022-09-15T19:26:29.446Z,95763.31
2022-09-15T19:28:59.008Z,95769.56
2022-09-15T19:31:28.046Z,95770.19
2022-09-15T19:33:56.857Z,95775.66
2022-09-15T19:36:28.969Z,95764.16
2022-09-15T19:38:58.324Z,95762.50
2022-09-15T19:41:27.339Z,95769.13
2022-09-15T19:43:55.924Z,95768.75
2022-09-15T19:46:26.614Z,95765.97
2022-09-15T19:48:55.679Z,95773.13
2022-09-15T19:51:26.622Z,95769.78
2022-09-15T19:53:56.402Z,95772.00
2022-09-15T19:56:30.136Z,95766.41
2022-09-15T19:59:00.154Z,95766.94
2022-09-15T20:01:31.081Z,95766.31
2022-09-15T20:04:02.073Z,95759.59
2022-09-15T20:06:35.629Z,95760.19
2022-09-15T20:09:05.137Z,95750.06
2022-09-15T20:11:34.727Z,95760.19
2022-09-15T20:14:04.058Z,95763.09
2022-09-15T20:16:32.677Z,95766.34
2022-09-15T20:19:03.063Z,95760.41
2022-09-15T20:21:51.060Z,95770.66
2022-09-15T20:24:20.741Z,95762.78
2022-09-15T20:26:50.211Z,95770.56
2022-09-15T20:29:19.765Z,95766.53
2022-09-15T20:31:49.157Z,95769.56
2022-09-15T20:34:18.714Z,95767.34
2022-09-15T20:36:48.968Z,95769.78
2022-09-15T20:39:19.512Z,95774.22
2022-09-15T20:41:48.153Z,95771.31
2022-09-15T20:44:17.070Z,95772.53
2022-09-15T20:46:45.593Z,95764.88
2022-09-15T20:49:14.520Z,95776.75
2022-09-15T20:51:43.497Z,95779.41
2022-09-15T20:54:13.871Z,95770.34
2022-09-15T20:56:42.650Z,95776.75
2022-09-15T20:59:15.264Z,95772.44
2022-09-15T21:01:44.691Z,95777.56
2022-09-15T21:04:13.704Z,95771.28
2022-09-15T21:06:42.672Z,95773.81
2022-09-15T21:09:11.535Z,95771.13
2022-09-15T21:11:43.512Z,95769.47
2022-09-15T21:14:14.287Z,95770.06
2022-09-15T21:16:43.406Z,95773.47
2022-09-15T21:19:13.215Z,95778.38
2022-09-15T21:21:41.894Z,95776.88
2022-09-15T21:24:10.881Z,95781.75
2022-09-15T21:26:56.260Z,95779.44
2022-09-15T21:29:25.157Z,95794.69
2022-09-15T21:31:54.046Z,95788.38
2022-09-15T21:34:22.707Z,95792.56
2022-09-15T21:36:53.786Z,95789.63
2022-09-15T21:39:22.469Z,95793.94
2022-09-15T21:41:52.821Z,95802.03
2022-09-15T21:44:21.348Z,95794.69
2022-09-15T21:46:50.156Z,95794.75
2022-09-15T21:49:19.393Z,95797.38
2022-09-15T21:51:48.130Z,95798.19
2022-09-15T21:54:16.967Z,95798.84
2022-09-15T21:56:45.723Z,95790.97
2022-09-15T21:59:18.292Z,95783.09
2022-09-15T22:01:47.048Z,95797.03
2022-09-15T22:04:15.992Z,95785.97
2022-09-15T22:06:46.971Z,95791.53
2022-09-15T22:09:17.513Z,95793.88
2022-09-15T22:11:46.345Z,95795.34
2022-09-15T22:14:16.515Z,95790.47
2022-09-15T22:16:45.066Z,95795.59
2022-09-15T22:19:14.244Z,95790.84
2022-09-15T22:21:42.921Z,95793.03
2022-09-15T22:24:13.552Z,95798.03
2022-09-15T22:26:43.475Z,95783.84
2022-09-15T22:29:12.532Z,95796.19
2022-09-15T22:31:42.824Z,95792.09
2022-09-15T22:34:11.977Z,95786.16
2022-09-15T22:36:40.741Z,95788.44
2022-09-15T22:39:09.591Z,95795.22
2022-09-15T22:41:39.797Z,95791.66
2022-09-15T22:44:17.766Z,95784.00
2022-09-15T22:46:49.787Z,95784.13
2022-09-15T22:49:18.426Z,95784.59
2022-09-15T22:51:47.047Z,95786.56
2022-09-15T22:54:16.880Z,95779.28
2022-09-15T22:56:47.456Z,95776.03
2022-09-15T22:59:17.041Z,95769.59
2022-09-15T23:01:47.318Z,95768.34
2022-09-15T23:04:16.548Z,95766.84
2022-09-15T23:06:45.187Z,95770.94
2022-09-15T23:09:13.996Z,95774.41
2022-09-15T23:11:43.447Z,95773.03
2022-09-15T23:14:15.560Z,95772.28
2022-09-15T23:16:44.975Z,95767.19
2022-09-15T23:19:15.671Z,95774.53
2022-09-15T23:21:44.466Z,95769.53
2022-09-15T23:24:13.993Z,95755.69
2022-09-15T23:26:42.547Z,95752.56
2022-09-15T23:29:11.339Z,95751.06
2022-09-15T23:31:40.017Z,95746.88
2022-09-15T23:34:08.845Z,95749.19
2022-09-15T23:36:38.864Z,95745.13
2022-09-15T23:39:07.519Z,95746.19
2022-09-15T23:41:36.838Z,95748.34
2022-09-15T23:44:05.535Z,95749.97
2022-09-15T23:46:35.070Z,95747.34
2022-09-15T23:49:03.888Z,95736.50
2022-09-15T23:51:32.748Z,95733.03
2022-09-15T23:54:04.689Z,95729.63
2022-09-15T23:56:33.802Z,95732.41
2022-09-15T23:59:03.225Z,95740.06
